createdAt,value
2023-02-19T00:02:35.896Z,101448.97
2023-02-19T00:07:44.078Z,101439.28
2023-02-19T00:12:54.299Z,101444.88
2023-02-19T00:18:07.527Z,101436.97
2023-02-19T00:23:15.151Z,101432.44
2023-02-19T00:28:19.898Z,101444.97
2023-02-19T00:33:36.924Z,101424.41
2023-02-19T00:38:43.366Z,101442.81
2023-02-19T00:43:53.553Z,101441.06
2023-02-19T00:49:05.917Z,101435.47
2023-02-19T00:54:11.018Z,101433.75
2023-02-19T00:59:33.266Z,101433.97
2023-02-19T01:04:43.561Z,101427.72
2023-02-19T01:10:00.731Z,101433.56
2023-02-19T01:15:19.865Z,101423.91
2023-02-19T01:20:37.019Z,101415.19
2023-02-19T01:25:46.805Z,101408.25
2023-02-19T01:30:57.644Z,101403.25
2023-02-19T01:36:30.749Z,101401.59
2023-02-19T01:41:43.152Z,101398.91
2023-02-19T01:46:52.180Z,101396.47
2023-02-19T01:52:02.708Z,101393.50
2023-02-19T01:57:25.003Z,101394.88
2023-02-19T02:02:42.236Z,101386.81
2023-02-19T02:08:09.779Z,101383.38
2023-02-19T02:13:20.325Z,101389.84
2023-02-19T02:18:41.197Z,101387.59
2023-02-19T02:24:04.824Z,101380.25
2023-02-19T02:29:37.570Z,101378.22
2023-02-19T02:34:55.996Z,101373.97
2023-02-19T02:40:15.243Z,101374.97
2023-02-19T02:45:51.776Z,101376.94
2023-02-19T02:51:06.773Z,101371.63
2023-02-19T02:56:15.538Z,101375.13
2023-02-19T03:01:42.289Z,101370.84
2023-02-19T03:07:00.643Z,101356.47
2023-02-19T03:12:25.809Z,101364.09
2023-02-19T03:17:51.041Z,101359.88
2023-02-19T03:23:11.478Z,101355.38
2023-02-19T03:28:46.594Z,101344.75
2023-02-19T03:33:57.833Z,101348.03
2023-02-19T03:39:10.451Z,101340.34
2023-02-19T03:44:34.297Z,101348.00
2023-02-19T03:49:44.525Z,101350.50
2023-02-19T03:55:13.570Z,101349.66
2023-02-19T04:00:51.183Z,101335.06
2023-02-19T04:06:00.880Z,101341.69
2023-02-19T04:11:20.672Z,101348.75
2023-02-19T04:16:29.863Z,101351.44
2023-02-19T04:21:37.046Z,101357.41
2023-02-19T04:27:00.530Z,101349.09
2023-02-19T04:32:11.428Z,101347.19
2023-02-19T04:37:22.732Z,101350.66
2023-02-19T04:42:39.093Z,101339.38
2023-02-19T04:47:47.145Z,101341.06
2023-02-19T04:52:57.383Z,101340.63
2023-02-19T04:58:14.715Z,101340.03
2023-02-19T05:03:27.857Z,101337.72
2023-02-19T05:08:38.073Z,101341.13
2023-02-19T05:13:48.289Z,101341.81
2023-02-19T05:18:57.487Z,101341.59
2023-02-19T05:24:03.703Z,101338.09
2023-02-19T05:29:07.878Z,101337.19
2023-02-19T05:34:22.106Z,101341.44
2023-02-19T05:39:26.296Z,101339.81
2023-02-19T05:44:33.669Z,101346.69
2023-02-19T05:49:57.781Z,101338.91
2023-02-19T05:55:06.937Z,101335.41
2023-02-19T06:00:28.489Z,101339.41
2023-02-19T06:05:38.426Z,101338.44
2023-02-19T06:10:45.605Z,101348.19
2023-02-19T06:16:02.873Z,101353.38
2023-02-19T06:21:17.429Z,101349.91
2023-02-19T06:26:34.371Z,101348.31
2023-02-19T06:31:38.646Z,101346.44
2023-02-19T06:36:54.285Z,101349.78
2023-02-19T06:42:06.032Z,101355.72
2023-02-19T06:47:15.238Z,101347.78
2023-02-19T06:52:30.038Z,101347.88
2023-02-19T06:57:36.686Z,101346.41
2023-02-19T07:02:48.874Z,101347.97
2023-02-19T07:08:04.615Z,101347.81
2023-02-19T07:13:12.266Z,101351.28
2023-02-19T07:18:19.562Z,101356.56
2023-02-19T07:23:42.877Z,101359.19
2023-02-19T07:29:03.829Z,101347.56
2023-02-19T07:34:16.341Z,101362.63
2023-02-19T07:39:48.645Z,101364.19
2023-02-19T07:44:54.840Z,101369.31
2023-02-19T07:50:06.242Z,101368.19
2023-02-19T07:55:16.327Z,101383.88
2023-02-19T08:00:28.878Z,101378.56
2023-02-19T08:05:42.143Z,101384.94
2023-02-19T08:11:15.936Z,101383.28
2023-02-19T08:16:42.563Z,101389.47
2023-02-19T08:21:54.687Z,101392.88
2023-02-19T08:27:09.400Z,101399.94
2023-02-19T08:32:19.053Z,101397.03
2023-02-19T08:37:25.932Z,101397.59
2023-02-19T08:42:39.468Z,101388.59
2023-02-19T09:05:59.024Z,101387.06
2023-02-19T10:55:31.832Z,101358.41
2023-02-19T11:13:40.095Z,101362.56
2023-02-19T11:18:45.418Z,101371.38
2023-02-19T11:23:50.757Z,101365.59
2023-02-19T11:29:00.938Z,101368.19
2023-02-19T11:34:26.286Z,101363.34
2023-02-19T11:39:32.790Z,101354.28
2023-02-19T11:44:50.642Z,101345.47
2023-02-19T11:50:02.953Z,101340.84
2023-02-19T11:55:16.492Z,101320.34
2023-02-19T12:00:29.402Z,101328.97
2023-02-19T12:05:39.472Z,101321.19
2023-02-19T12:10:58.828Z,101316.56
2023-02-19T12:16:23.033Z,101313.81
2023-02-19T12:21:42.519Z,101297.47
2023-02-19T12:27:05.170Z,101299.50
2023-02-19T12:32:30.272Z,101280.44
2023-02-19T12:37:43.301Z,101288.75
2023-02-19T12:42:58.745Z,101281.44
2023-02-19T12:48:11.525Z,101270.16
2023-02-19T12:53:26.802Z,101267.28
2023-02-19T12:58:34.749Z,101251.19
2023-02-19T13:03:44.279Z,101245.28
2023-02-19T13:09:05.443Z,101230.78
2023-02-19T13:14:21.637Z,101227.63
2023-02-19T13:19:26.240Z,101222.06
2023-02-19T13:24:33.025Z,101208.38
2023-02-19T13:29:55.449Z,101204.47
2023-02-19T13:35:18.099Z,101201.56
2023-02-19T13:40:32.257Z,101184.66
2023-02-19T13:45:40.084Z,101172.88
2023-02-19T13:50:45.063Z,101166.50
2023-02-19T13:55:54.056Z,101157.88
2023-02-19T14:00:58.106Z,101146.72
2023-02-19T14:06:06.156Z,101141.56
2023-02-19T14:11:09.667Z,101125.91
2023-02-19T14:16:31.096Z,101116.50
2023-02-19T14:21:40.573Z,101102.63
2023-02-19T14:26:44.507Z,101095.56
2023-02-19T14:31:48.556Z,101086.28
2023-02-19T14:36:57.438Z,101083.16
2023-02-19T14:42:06.360Z,101065.38
2023-02-19T14:47:14.923Z,101065.06
2023-02-19T14:52:25.235Z,101054.06
2023-02-19T14:57:31.257Z,101052.41
2023-02-19T15:02:35.501Z,101047.03
2023-02-19T15:07:43.092Z,101038.06
2023-02-19T15:12:49.193Z,101028.56
2023-02-19T15:17:54.111Z,101013.34
2023-02-19T15:23:03.061Z,101011.47
2023-02-19T15:28:24.305Z,101004.03
2023-02-19T15:33:29.568Z,100997.84
2023-02-19T15:38:36.713Z,100995.41
2023-02-19T15:43:45.460Z,100987.94
2023-02-19T15:48:54.747Z,100986.09
2023-02-19T15:54:05.376Z,100984.25
2023-02-19T15:59:20.100Z,100984.25
2023-02-19T16:18:49.299Z,100975.50
2023-02-19T16:23:57.126Z,100971.78
2023-02-19T16:29:00.446Z,100976.38
2023-02-19T16:34:19.938Z,100978.31
2023-02-19T16:39:27.026Z,100966.59
2023-02-19T16:44:36.802Z,100967.75
2023-02-19T16:49:42.632Z,100977.38
2023-02-19T16:54:45.803Z,100975.38
2023-02-19T16:59:49.433Z,100981.84
2023-02-19T17:04:55.941Z,100971.56
2023-02-19T17:09:59.144Z,100973.22
2023-02-19T17:15:02.301Z,100982.13
2023-02-19T17:20:22.940Z,100981.63
2023-02-19T17:25:26.136Z,100986.81
2023-02-19T17:30:30.971Z,100988.91
2023-02-19T17:35:35.547Z,100996.50
2023-02-19T17:40:39.611Z,101002.81
2023-02-19T17:45:42.997Z,101001.25
2023-02-19T17:50:49.317Z,101012.53
2023-02-19T17:55:52.451Z,101007.06
2023-02-19T18:00:55.720Z,101013.41
2023-02-19T18:06:00.271Z,101017.97
2023-02-19T18:11:03.425Z,101014.09
2023-02-19T18:16:07.331Z,101013.53
2023-02-19T18:21:13.762Z,101017.28
2023-02-19T18:26:21.772Z,101021.25
2023-02-19T18:31:25.006Z,101021.78
2023-02-19T18:36:29.693Z,101034.88
2023-02-19T18:41:32.820Z,101039.06
2023-02-19T18:46:35.940Z,101045.31
2023-02-19T18:51:40.488Z,101043.44
2023-02-19T18:56:44.517Z,101039.50
2023-02-19T19:01:47.869Z,101041.06
2023-02-19T19:06:52.490Z,101044.44
2023-02-19T19:11:55.780Z,101042.63
2023-02-19T19:16:59.100Z,101048.75
2023-02-19T19:22:03.836Z,101050.16
2023-02-19T19:27:06.773Z,101048.31
2023-02-19T19:32:10.867Z,101052.88
2023-02-19T19:37:15.585Z,101046.28
2023-02-19T19:42:18.790Z,101048.75
2023-02-19T19:47:22.205Z,101052.91
2023-02-19T19:52:26.837Z,101057.66
2023-02-19T19:57:30.081Z,101049.47
2023-02-19T20:02:33.310Z,101050.56
2023-02-19T20:07:38.036Z,101048.13
2023-02-19T20:12:41.716Z,101049.25
2023-02-19T20:17:44.988Z,101053.47
2023-02-19T20:22:49.679Z,101046.09
2023-02-19T20:27:54.020Z,101046.16
2023-02-19T20:32:57.293Z,101047.88
2023-02-19T20:38:01.901Z,101047.31
2023-02-19T20:43:05.513Z,101045.34
2023-02-19T20:48:08.753Z,101061.78
2023-02-19T20:53:13.432Z,101061.47
2023-02-19T20:58:17.362Z,101057.72
2023-02-19T21:03:20.752Z,101055.22
2023-02-19T21:08:25.339Z,101056.84
2023-02-19T21:13:30.197Z,101065.56
2023-02-19T21:18:33.349Z,101059.63
2023-02-19T21:23:38.430Z,101054.59
2023-02-19T21:28:41.793Z,101059.31
2023-02-19T21:33:45.003Z,101058.41
2023-02-19T21:38:50.144Z,101064.44
2023-02-19T21:43:54.862Z,101059.13
2023-02-19T21:48:58.764Z,101054.69
2023-02-19T21:54:03.603Z,101047.56
2023-02-19T21:59:06.833Z,101054.84
2023-02-19T22:04:11.610Z,101050.66
2023-02-19T22:09:16.370Z,101062.84
2023-02-19T22:14:19.631Z,101051.31
2023-02-19T22:19:22.930Z,101052.13
2023-02-19T22:24:28.670Z,101054.78
2023-02-19T22:29:32.250Z,101054.72
2023-02-19T22:34:39.922Z,101056.94
2023-02-19T22:39:44.521Z,101059.81
2023-02-19T22:44:47.776Z,101054.50
2023-02-19T22:49:51.534Z,101055.44
2023-02-19T22:54:56.165Z,101053.16
2023-02-19T22:59:59.617Z,101051.03
2023-02-19T23:05:02.879Z,101044.41
2023-02-19T23:10:09.358Z,101037.38
2023-02-19T23:15:13.022Z,101047.75
2023-02-19T23:20:16.350Z,101044.38
2023-02-19T23:25:21.057Z,101050.16
2023-02-19T23:30:24.796Z,101055.75
2023-02-19T23:35:28.054Z,101060.41
2023-02-19T23:40:32.646Z,101052.13
2023-02-19T23:45:35.787Z,101049.34
2023-02-19T23:50:39.058Z,101051.44
2023-02-19T23:55:43.888Z,101056.56
